createdAt,value
2023-03-02T00:00:33.554Z,101618.53
2023-03-02T00:05:36.119Z,101614.69
2023-03-02T00:10:39.073Z,101613.44
2023-03-02T00:15:41.682Z,101617.47
2023-03-02T00:20:43.747Z,101613.75
2023-03-02T00:25:45.847Z,101609.06
2023-03-02T00:30:47.905Z,101613.13
2023-03-02T00:35:50.023Z,101614.47
2023-03-02T00:40:52.263Z,101608.09
2023-03-02T00:45:55.658Z,101596.56
2023-03-02T00:51:01.477Z,101594.59
2023-03-02T00:56:04.711Z,101586.31
2023-03-02T01:01:12.417Z,101587.03
2023-03-02T01:06:17.901Z,101591.88
2023-03-02T01:11:22.678Z,101588.19
2023-03-02T01:16:24.708Z,101587.91
2023-03-02T01:21:26.801Z,101569.31
2023-03-02T01:26:28.974Z,101576.84
2023-03-02T01:31:31.479Z,101574.69
2023-03-02T01:36:34.114Z,101569.56
2023-03-02T01:41:36.424Z,101568.31
2023-03-02T01:46:38.431Z,101571.63
2023-03-02T01:51:46.269Z,101572.19
2023-03-02T01:56:48.353Z,101565.88
2023-03-02T02:07:03.687Z,101553.38
2023-03-02T02:12:06.157Z,101561.91
2023-03-02T02:17:08.856Z,101560.91
2023-03-02T02:22:12.195Z,101563.44
2023-03-02T02:27:15.218Z,101566.13
2023-03-02T02:32:30.722Z,101564.44
2023-03-02T02:37:40.110Z,101562.81
2023-03-02T02:42:48.621Z,101560.31
2023-03-02T02:47:52.758Z,101560.31
2023-03-02T02:53:05.669Z,101561.28
2023-03-02T02:58:22.424Z,101556.19
2023-03-02T03:03:31.307Z,101564.19
2023-03-02T03:08:52.282Z,101550.25
2023-03-02T03:14:16.035Z,101551.34
2023-03-02T03:19:25.825Z,101554.94
2023-03-02T03:24:29.633Z,101547.22
2023-03-02T03:29:32.874Z,101543.72
2023-03-02T03:34:41.139Z,101533.34
2023-03-02T03:39:43.985Z,101537.84
2023-03-02T03:44:46.165Z,101531.66
2023-03-02T03:49:48.176Z,101535.34
2023-03-02T03:54:50.141Z,101531.94
2023-03-02T03:59:52.177Z,101539.13
2023-03-02T04:04:54.268Z,101534.81
2023-03-02T04:10:03.892Z,101534.00
2023-03-02T04:15:09.376Z,101530.69
2023-03-02T04:20:16.923Z,101535.19
2023-03-02T04:25:27.551Z,101541.47
2023-03-02T04:30:29.940Z,101527.53
2023-03-02T04:35:32.002Z,101530.41
2023-03-02T04:40:34.052Z,101530.41
2023-03-02T04:45:36.059Z,101544.44
2023-03-02T04:50:38.711Z,101542.81
2023-03-02T04:55:41.142Z,101541.03
2023-03-02T05:00:43.205Z,101542.81
2023-03-02T05:05:45.283Z,101537.78
2023-03-02T05:10:47.334Z,101542.28
2023-03-02T05:15:51.104Z,101551.91
2023-03-02T05:20:54.663Z,101549.38
2023-03-02T05:25:57.823Z,101552.16
2023-03-02T05:31:00.180Z,101560.16
2023-03-02T05:36:02.487Z,101557.66
2023-03-02T05:41:11.864Z,101566.47
2023-03-02T05:46:15.392Z,101570.16
2023-03-02T05:51:18.091Z,101576.34
2023-03-02T05:56:22.639Z,101586.16
2023-03-02T06:01:24.656Z,101591.44
2023-03-02T06:06:26.861Z,101597.75
2023-03-02T06:11:31.484Z,101603.13
2023-03-02T06:16:34.221Z,101600.63
2023-03-02T06:21:36.781Z,101611.31
2023-03-02T06:26:38.957Z,101614.00
2023-03-02T06:31:41.252Z,101616.81
2023-03-02T06:36:43.676Z,101617.88
2023-03-02T06:41:47.232Z,101610.25
2023-03-02T06:46:50.071Z,101602.59
2023-03-02T06:51:58.364Z,101603.56
2023-03-02T06:57:01.850Z,101605.59
2023-03-02T07:02:05.042Z,101597.06
2023-03-02T07:07:07.266Z,101604.25
2023-03-02T07:12:14.524Z,101601.00
2023-03-02T07:17:17.078Z,101602.09
2023-03-02T07:22:19.138Z,101591.91
2023-03-02T07:27:21.198Z,101588.28
2023-03-02T07:32:24.207Z,101582.31
2023-03-02T07:37:31.530Z,101579.09
2023-03-02T07:42:35.632Z,101574.16
2023-03-02T07:47:42.803Z,101574.19
2023-03-02T07:52:58.101Z,101577.50
2023-03-02T07:58:03.155Z,101573.47
2023-03-02T08:03:05.558Z,101566.34
2023-03-02T08:08:08.484Z,101558.91
2023-03-02T08:13:10.529Z,101559.63
2023-03-02T08:18:12.413Z,101554.56
2023-03-02T08:23:15.112Z,101549.13
2023-03-02T08:28:17.181Z,101551.31
2023-03-02T08:33:19.230Z,101549.22
2023-03-02T08:38:21.302Z,101553.44
2023-03-02T08:43:25.677Z,101557.66
2023-03-02T08:48:28.889Z,101544.06
2023-03-02T08:53:34.874Z,101540.25
2023-03-02T08:58:40.134Z,101543.22
2023-03-02T09:03:46.616Z,101543.56
2023-03-02T09:08:52.339Z,101541.19
2023-03-02T09:13:55.331Z,101536.97
2023-03-02T09:18:57.343Z,101548.72
2023-03-02T09:23:59.638Z,101548.00
2023-03-02T09:29:02.097Z,101531.22
2023-03-02T09:34:05.486Z,101534.88
2023-03-02T09:39:12.656Z,101524.28
2023-03-02T09:44:41.269Z,101526.13
2023-03-02T09:50:05.128Z,101526.09
2023-03-02T09:55:23.816Z,101515.44
2023-03-02T10:00:33.216Z,101527.88
2023-03-02T10:05:55.603Z,101518.97
2023-03-02T10:11:28.653Z,101510.97
2023-03-02T10:16:48.738Z,101502.06
2023-03-02T10:21:58.703Z,101504.72
2023-03-02T10:27:22.606Z,101497.59
2023-03-02T10:32:30.118Z,101505.59
2023-03-02T10:37:32.295Z,101500.22
2023-03-02T10:42:40.700Z,101489.53
2023-03-02T10:47:42.818Z,101484.13
2023-03-02T10:52:59.506Z,101487.78
2023-03-02T10:58:20.496Z,101484.19
2023-03-02T11:03:23.614Z,101487.41
2023-03-02T11:08:28.424Z,101482.66
2023-03-02T11:13:33.908Z,101488.25
2023-03-02T11:18:46.268Z,101486.91
2023-03-02T11:24:00.443Z,101488.34
2023-03-02T11:29:11.854Z,101484.41
2023-03-02T11:34:40.919Z,101476.88
2023-03-02T11:39:54.989Z,101465.72
2023-03-02T11:45:01.110Z,101458.28
2023-03-02T11:50:06.462Z,101467.59
2023-03-02T11:55:17.950Z,101474.06
2023-03-02T12:00:38.383Z,101484.31
2023-03-02T12:05:40.878Z,101470.91
2023-03-02T12:10:44.601Z,101468.63
2023-03-02T12:15:50.457Z,101465.53
2023-03-02T12:21:01.756Z,101458.25
2023-03-02T12:26:24.411Z,101454.41
2023-03-02T12:31:27.218Z,101434.31
2023-03-02T12:36:42.385Z,101433.19
2023-03-02T12:42:00.379Z,101432.25
2023-03-02T12:47:04.047Z,101423.78
2023-03-02T12:52:27.811Z,101419.38
2023-03-02T12:57:32.391Z,101398.56
2023-03-02T13:02:37.415Z,101405.97
2023-03-02T13:07:50.492Z,101393.53
2023-03-02T13:12:52.758Z,101390.72
2023-03-02T13:18:01.316Z,101380.50
2023-03-02T13:23:03.975Z,101357.63
2023-03-02T13:28:08.115Z,101374.03
2023-03-02T13:33:23.615Z,101369.69
2023-03-02T13:38:38.166Z,101362.44
2023-03-02T13:43:40.396Z,101365.06
2023-03-02T13:49:09.047Z,101364.41
2023-03-02T13:54:22.661Z,101353.66
2023-03-02T13:59:25.300Z,101342.81
2023-03-02T14:04:27.561Z,101326.81
2023-03-02T14:09:29.808Z,101323.97
2023-03-02T14:14:40.558Z,101317.50
2023-03-02T14:19:55.527Z,101312.75
2023-03-02T14:25:01.040Z,101303.78
2023-03-02T14:30:35.678Z,101298.03
2023-03-02T14:35:38.034Z,101287.84
2023-03-02T14:40:46.891Z,101289.00
2023-03-02T14:45:50.724Z,101279.75
2023-03-02T14:51:01.108Z,101277.34
2023-03-02T14:56:04.207Z,101272.31
2023-03-02T15:01:08.103Z,101277.13
2023-03-02T15:06:25.087Z,101263.16
2023-03-02T15:11:30.165Z,101264.31
2023-03-02T15:16:34.980Z,101263.63
2023-03-02T15:21:39.746Z,101255.78
2023-03-02T15:26:53.378Z,101256.78
2023-03-02T15:38:31.122Z,101253.28
2023-03-02T15:43:43.283Z,101252.41
2023-03-02T15:48:55.186Z,101249.72
2023-03-02T15:54:04.678Z,101235.44
2023-03-02T15:59:07.118Z,101244.19
2023-03-02T16:04:09.706Z,101248.47
2023-03-02T16:09:12.076Z,101238.53
2023-03-02T16:14:16.045Z,101249.00
2023-03-02T16:19:19.611Z,101247.00
2023-03-02T16:24:21.789Z,101241.47
2023-03-02T16:29:24.569Z,101234.16
2023-03-02T16:34:27.187Z,101237.31
2023-03-02T16:39:29.654Z,101238.78
2023-03-02T16:44:31.501Z,101241.13
2023-03-02T16:49:33.932Z,101242.53
2023-03-02T16:54:36.126Z,101246.59
2023-03-02T16:59:41.327Z,101232.06
2023-03-02T17:04:43.615Z,101230.84
2023-03-02T17:09:46.154Z,101232.13
2023-03-02T17:14:49.945Z,101245.03
2023-03-02T17:19:52.191Z,101247.22
2023-03-02T17:25:06.725Z,101245.94
2023-03-02T17:30:24.734Z,101246.31
2023-03-02T17:35:45.093Z,101250.22
2023-03-02T17:41:46.862Z,101259.38
2023-03-02T17:46:54.050Z,101257.13
2023-03-02T17:52:04.709Z,101252.19
2023-03-02T17:57:09.656Z,101249.97
2023-03-02T18:02:13.604Z,101261.81
2023-03-02T18:07:17.671Z,101257.72
2023-03-02T18:12:20.241Z,101258.22
2023-03-02T18:17:25.402Z,101257.72
2023-03-02T18:22:30.569Z,101258.13
2023-03-02T18:27:33.908Z,101259.34
2023-03-02T18:32:37.230Z,101247.47
2023-03-02T18:37:45.682Z,101252.31
2023-03-02T18:42:56.650Z,101246.63
2023-03-02T18:53:36.179Z,101248.25
2023-03-02T18:58:52.787Z,101247.88
2023-03-02T19:04:21.149Z,101240.38
2023-03-02T19:09:49.233Z,101250.41
2023-03-02T19:14:59.827Z,101249.16
2023-03-02T19:20:17.736Z,101254.88
2023-03-02T19:25:31.933Z,101243.88
2023-03-02T19:30:42.258Z,101246.88
2023-03-02T19:35:47.090Z,101252.63
2023-03-02T19:40:50.607Z,101250.44
2023-03-02T19:45:58.738Z,101254.31
2023-03-02T19:51:01.920Z,101248.69
2023-03-02T19:56:24.769Z,101252.63
2023-03-02T20:01:33.029Z,101245.16
2023-03-02T20:13:08.696Z,101240.72
2023-03-02T20:18:23.677Z,101246.25
2023-03-02T20:23:30.899Z,101247.66
2023-03-02T20:28:35.420Z,101239.25
2023-03-02T20:33:52.278Z,101245.00
2023-03-02T20:39:07.912Z,101252.34
2023-03-02T20:44:12.832Z,101248.44
2023-03-02T20:49:18.636Z,101245.34
2023-03-02T20:54:36.212Z,101234.41
2023-03-02T20:59:39.550Z,101234.75
2023-03-02T21:04:43.652Z,101235.25
2023-03-02T21:09:52.413Z,101230.50
2023-03-02T21:14:55.981Z,101230.94
2023-03-02T21:19:59.747Z,101223.66
2023-03-02T21:25:02.287Z,101213.59
2023-03-02T21:30:10.648Z,101208.00
2023-03-02T21:35:23.524Z,101200.66
2023-03-02T21:40:31.262Z,101201.94
2023-03-02T21:45:37.332Z,101192.78
2023-03-02T21:50:40.860Z,101184.56
2023-03-02T21:55:46.331Z,101178.03
2023-03-02T22:00:53.925Z,101170.72
2023-03-02T22:05:56.257Z,101178.31
2023-03-02T22:10:58.293Z,101188.44
2023-03-02T22:16:14.196Z,101185.47
2023-03-02T22:21:37.602Z,101192.94
2023-03-02T22:26:54.763Z,101191.66
2023-03-02T22:32:06.738Z,101188.75
2023-03-02T22:37:19.168Z,101190.16
2023-03-02T22:42:27.511Z,101179.25
2023-03-02T22:47:29.664Z,101172.84
2023-03-02T22:52:43.387Z,101172.63
2023-03-02T22:57:45.700Z,101184.47
2023-03-02T23:02:48.380Z,101175.50
2023-03-02T23:07:51.429Z,101162.06
2023-03-02T23:12:53.433Z,101157.47
2023-03-02T23:17:59.579Z,101156.28
2023-03-02T23:23:01.551Z,101147.16
2023-03-02T23:28:05.272Z,101146.13
2023-03-02T23:33:07.699Z,101137.97
2023-03-02T23:38:09.777Z,101127.16
2023-03-02T23:43:11.958Z,101122.44
2023-03-02T23:48:14.009Z,101117.00
2023-03-02T23:53:16.184Z,101130.69
2023-03-02T23:58:18.252Z,101136.47
